createdAt,value
2022-12-01T00:01:42.639Z,14.99
2022-12-01T00:04:31.538Z,15.00
2022-12-01T00:07:20.498Z,14.91
2022-12-01T00:10:33.478Z,14.95
2022-12-01T00:13:22.485Z,14.90
2022-12-01T00:16:11.479Z,14.87
2022-12-01T00:19:01.538Z,14.85
2022-12-01T00:21:43.912Z,14.92
2022-12-01T00:24:33.493Z,14.93
2022-12-01T00:27:15.872Z,14.96
2022-12-01T00:30:04.580Z,14.88
2022-12-01T00:32:53.591Z,14.94
2022-12-01T00:35:35.753Z,14.95
2022-12-01T00:38:24.474Z,14.93
2022-12-01T00:41:13.861Z,14.90
2022-12-01T00:43:55.608Z,14.86
2022-12-01T00:46:37.824Z,14.78
2022-12-01T00:49:28.584Z,14.72
2022-12-01T00:52:16.818Z,14.77
2022-12-01T00:54:59.637Z,14.74
2022-12-01T00:57:47.880Z,14.65
2022-12-01T01:00:30.555Z,14.51
2022-12-01T01:03:19.854Z,14.42
2022-12-01T01:06:02.524Z,14.35
2022-12-01T01:08:51.826Z,14.55
2022-12-01T01:11:40.576Z,14.67
2022-12-01T01:14:30.537Z,14.54
2022-12-01T01:17:12.689Z,14.36
2022-12-01T01:20:01.457Z,14.55
2022-12-01T01:22:43.690Z,14.60
2022-12-01T01:25:32.516Z,14.63
2022-12-01T01:28:14.773Z,14.67
2022-12-01T01:31:04.612Z,14.71
2022-12-01T01:33:53.576Z,14.68
2022-12-01T01:36:36.067Z,14.66
2022-12-01T01:39:24.570Z,14.66
2022-12-01T01:42:13.546Z,14.58
2022-12-01T01:45:06.475Z,14.59
2022-12-01T01:47:49.860Z,14.73
2022-12-01T01:50:38.555Z,14.75
2022-12-01T01:53:29.546Z,14.71
2022-12-01T01:56:18.566Z,14.73
2022-12-01T01:59:00.926Z,14.57
2022-12-01T02:01:49.663Z,14.65
2022-12-01T02:04:32.849Z,14.74
2022-12-01T02:07:24.574Z,14.77
2022-12-01T02:10:22.509Z,14.77
2022-12-01T02:13:14.573Z,14.81
2022-12-01T02:16:16.493Z,14.86
2022-12-01T02:19:37.571Z,14.84
2022-12-01T02:22:53.900Z,14.91
2022-12-01T02:25:58.539Z,14.98
2022-12-01T02:29:19.556Z,15.13
2022-12-01T02:32:25.820Z,15.14
2022-12-01T02:35:25.557Z,15.19
2022-12-01T02:38:38.842Z,15.34
2022-12-01T02:41:27.514Z,15.37
2022-12-01T02:44:31.833Z,15.59
2022-12-01T02:47:38.470Z,15.65
2022-12-01T02:50:29.836Z,15.68
2022-12-01T02:53:14.461Z,15.74
2022-12-01T02:56:00.078Z,15.87
2022-12-01T02:58:48.432Z,15.89
2022-12-01T03:01:53.546Z,16.13
2022-12-01T03:05:18.436Z,16.17
2022-12-01T03:08:14.396Z,16.25
2022-12-01T03:11:14.609Z,16.36
2022-12-01T03:14:25.764Z,16.58
2022-12-01T03:17:16.479Z,16.80
2022-12-01T03:20:16.556Z,17.11
2022-12-01T03:23:04.963Z,17.40
2022-12-01T03:25:57.624Z,17.73
2022-12-01T03:28:49.769Z,18.09
2022-12-01T03:31:43.584Z,18.49
2022-12-01T03:34:53.879Z,18.97
2022-12-01T03:37:55.485Z,19.52
2022-12-01T03:40:41.810Z,19.83
2022-12-01T03:43:36.519Z,20.30
2022-12-01T03:46:52.922Z,20.68
2022-12-01T03:49:42.545Z,21.16
2022-12-01T03:52:45.849Z,21.55
2022-12-01T03:55:39.035Z,21.77
2022-12-01T03:58:36.495Z,22.00
2022-12-01T04:01:18.949Z,22.20
2022-12-01T04:04:07.551Z,22.36
2022-12-01T04:07:04.485Z,22.53
2022-12-01T04:09:46.962Z,22.64
2022-12-01T04:12:40.470Z,22.79
2022-12-01T04:15:29.843Z,22.80
2022-12-01T04:18:12.504Z,23.03
2022-12-01T04:20:54.720Z,23.28
2022-12-01T04:24:02.565Z,23.15
2022-12-01T04:26:47.047Z,23.26
2022-12-01T04:29:35.480Z,23.36
2022-12-01T04:32:24.539Z,23.36
2022-12-01T04:35:07.645Z,23.28
2022-12-01T04:37:56.551Z,23.31
2022-12-01T04:40:38.765Z,23.56
2022-12-01T04:43:27.566Z,23.25
2022-12-01T04:46:09.883Z,23.12
2022-12-01T04:48:58.514Z,23.20
2022-12-01T04:51:40.946Z,23.16
2022-12-01T04:54:30.913Z,22.98
2022-12-01T04:57:12.848Z,23.09
2022-12-01T05:00:01.495Z,23.17
2022-12-01T05:02:44.766Z,23.10
2022-12-01T05:05:33.540Z,23.37
2022-12-01T05:08:22.470Z,23.65
2022-12-01T05:11:19.401Z,23.59
2022-12-01T05:14:08.566Z,23.70
2022-12-01T05:16:50.891Z,23.54
2022-12-01T05:19:51.724Z,23.65
2022-12-01T05:23:03.688Z,23.80
2022-12-01T05:25:42.410Z,23.74
2022-12-01T05:28:27.843Z,24.01
2022-12-01T05:31:16.499Z,23.76
2022-12-01T05:34:05.431Z,24.23
2022-12-01T05:36:47.892Z,24.26
2022-12-01T05:39:36.402Z,24.30
2022-12-01T05:42:25.491Z,24.70
2022-12-01T05:45:15.440Z,25.20
2022-12-01T05:48:04.531Z,25.32
2022-12-01T05:50:54.032Z,25.35
2022-12-01T05:53:35.574Z,25.43
2022-12-01T05:56:24.501Z,25.42
2022-12-01T05:59:06.939Z,25.44
2022-12-01T06:01:56.437Z,25.36
2022-12-01T06:04:45.530Z,25.52
2022-12-01T06:07:27.688Z,25.67
2022-12-01T06:10:17.561Z,25.46
2022-12-01T06:13:12.415Z,25.86
2022-12-01T06:16:08.494Z,25.95
2022-12-01T06:18:50.765Z,25.79
2022-12-01T06:21:39.410Z,25.79
2022-12-01T06:24:21.846Z,25.51
2022-12-01T06:27:10.463Z,25.68
2022-12-01T06:29:53.166Z,25.66
2022-12-01T06:32:42.570Z,25.71
2022-12-01T06:35:24.869Z,25.51
2022-12-01T06:38:13.472Z,25.72
2022-12-01T06:40:55.932Z,25.90
2022-12-01T06:43:45.495Z,25.96
2022-12-01T06:46:35.585Z,25.71
2022-12-01T06:49:17.727Z,25.57
2022-12-01T06:52:06.542Z,25.36
2022-12-01T06:54:48.682Z,25.77
2022-12-01T06:57:37.542Z,25.73
2022-12-01T07:00:26.563Z,25.46
2022-12-01T07:03:15.479Z,25.40
2022-12-01T07:06:02.426Z,25.68
2022-12-01T07:08:51.488Z,25.70
2022-12-01T07:11:46.353Z,25.17
2022-12-01T07:14:35.541Z,25.72
2022-12-01T07:17:17.800Z,25.38
2022-12-01T07:20:06.502Z,25.75
2022-12-01T07:22:48.817Z,26.03
2022-12-01T07:25:37.404Z,25.78
2022-12-01T07:28:26.430Z,25.61
2022-12-01T07:31:21.558Z,25.88
2022-12-01T07:34:03.760Z,25.85
2022-12-01T07:36:52.444Z,25.71
2022-12-01T07:39:34.798Z,25.84
2022-12-01T07:42:23.524Z,25.55
2022-12-01T07:45:12.422Z,25.89
2022-12-01T07:48:02.479Z,25.97
2022-12-01T07:50:44.843Z,25.62
2022-12-01T07:53:33.446Z,25.83
2022-12-01T07:56:15.898Z,25.96
2022-12-01T07:59:04.419Z,26.00
2022-12-01T08:01:53.434Z,25.60
2022-12-01T08:04:42.898Z,25.79
2022-12-01T08:07:29.571Z,25.81
2022-12-01T08:10:18.547Z,25.71
2022-12-01T08:13:09.855Z,25.75
2022-12-01T08:15:55.499Z,25.65
2022-12-01T08:18:46.023Z,25.52
2022-12-01T08:21:30.514Z,25.79
2022-12-01T08:24:19.795Z,25.81
2022-12-01T08:27:01.482Z,25.64
2022-12-01T08:29:43.689Z,25.93
2022-12-01T08:32:32.481Z,25.89
2022-12-01T08:35:14.806Z,25.59
2022-12-01T08:38:05.575Z,25.94
2022-12-01T08:40:53.744Z,25.71
2022-12-01T08:46:45.844Z,25.56
2022-12-01T08:49:28.426Z,26.02
2022-12-01T08:52:10.651Z,25.78
2022-12-01T08:54:59.391Z,25.74
2022-12-01T08:57:41.754Z,25.79
2022-12-01T09:00:31.481Z,25.75
2022-12-01T09:03:20.699Z,25.87
2022-12-01T09:06:02.834Z,25.98
2022-12-01T09:08:52.499Z,25.97
2022-12-01T09:11:42.533Z,25.82
2022-12-01T09:14:31.465Z,25.62
2022-12-01T09:17:22.383Z,25.68
2022-12-01T09:20:11.396Z,25.79
2022-12-01T09:22:53.847Z,25.64
2022-12-01T09:25:42.562Z,25.80
2022-12-01T09:28:25.802Z,25.80
2022-12-01T09:31:19.565Z,25.82
2022-12-01T09:34:11.908Z,25.60
2022-12-01T09:37:06.499Z,25.74
2022-12-01T09:39:49.191Z,25.71
2022-12-01T09:42:38.448Z,25.61
2022-12-01T09:45:33.875Z,25.64
2022-12-01T09:48:50.478Z,25.34
2022-12-01T09:51:44.395Z,25.44
2022-12-01T09:54:33.480Z,25.50
2022-12-01T09:57:40.646Z,25.46
2022-12-01T10:00:28.849Z,25.42
2022-12-01T10:03:40.509Z,25.46
2022-12-01T10:06:31.868Z,25.23
2022-12-01T10:09:29.454Z,25.13
2022-12-01T10:12:37.417Z,25.30
2022-12-01T10:15:36.381Z,25.17
2022-12-01T10:18:31.462Z,25.16
2022-12-01T10:21:47.427Z,25.24
2022-12-01T10:24:42.512Z,24.99
2022-12-01T10:27:30.302Z,25.09
2022-12-01T10:30:21.515Z,24.97
2022-12-01T10:33:25.935Z,24.93
2022-12-01T10:36:08.536Z,24.82
2022-12-01T10:38:57.443Z,24.86
2022-12-01T10:42:43.397Z,24.76
2022-12-01T10:45:29.910Z,24.59
2022-12-01T10:48:30.565Z,24.57
2022-12-01T10:51:18.686Z,24.39
2022-12-01T10:54:47.396Z,24.25
2022-12-01T10:57:38.873Z,24.10
2022-12-01T11:03:42.879Z,23.73
2022-12-01T11:06:30.484Z,23.63
2022-12-01T11:09:28.453Z,23.41
2022-12-01T11:12:30.493Z,23.29
2022-12-01T11:15:30.494Z,23.07
2022-12-01T11:18:34.424Z,23.09
2022-12-01T11:21:28.059Z,22.96
2022-12-01T11:24:16.392Z,22.83
2022-12-01T11:27:00.561Z,22.71
2022-12-01T11:29:54.494Z,22.65
2022-12-01T11:32:47.758Z,22.60
2022-12-01T11:35:32.423Z,22.45
2022-12-01T11:38:30.605Z,22.38
2022-12-01T11:41:12.812Z,22.27
2022-12-01T11:44:02.059Z,22.17
2022-12-01T11:46:55.860Z,22.13
2022-12-01T11:50:05.463Z,21.96
2022-12-01T11:52:56.732Z,21.88
2022-12-01T11:55:45.508Z,21.78
2022-12-01T11:58:27.826Z,21.71
2022-12-01T12:01:34.464Z,21.72
2022-12-01T12:04:33.196Z,21.59
2022-12-01T12:07:34.914Z,21.48
2022-12-01T12:10:31.193Z,21.42
2022-12-01T12:13:31.381Z,21.34
2022-12-01T12:16:48.771Z,21.19
2022-12-01T12:20:07.287Z,21.19
2022-12-01T12:23:19.876Z,21.10
2022-12-01T12:26:16.415Z,21.06
2022-12-01T12:29:23.427Z,20.96
2022-12-01T12:32:18.826Z,20.95
2022-12-01T12:35:22.411Z,20.91
2022-12-01T12:38:20.470Z,20.83
2022-12-01T12:41:55.464Z,20.80
2022-12-01T12:44:55.610Z,20.85
2022-12-01T12:48:15.456Z,20.72
2022-12-01T12:51:28.394Z,20.69
2022-12-01T12:54:41.775Z,20.73
2022-12-01T12:57:44.534Z,20.68
2022-12-01T13:00:31.775Z,20.64
2022-12-01T13:03:46.484Z,20.61
2022-12-01T13:07:00.521Z,20.51
2022-12-01T13:09:49.568Z,20.53
2022-12-01T13:12:47.511Z,20.51
2022-12-01T13:15:44.537Z,20.46
2022-12-01T13:18:35.825Z,20.42
2022-12-01T13:21:31.470Z,20.47
2022-12-01T13:24:23.536Z,20.61
2022-12-01T13:27:26.415Z,20.63
2022-12-01T13:30:20.458Z,20.41
2022-12-01T13:33:16.441Z,20.40
2022-12-01T13:36:22.984Z,20.29
2022-12-01T13:39:17.502Z,20.10
2022-12-01T13:42:26.433Z,20.06
2022-12-01T13:45:15.933Z,20.02
2022-12-01T13:48:08.558Z,19.98
2022-12-01T13:50:51.259Z,19.92
2022-12-01T13:53:43.508Z,19.97
2022-12-01T13:56:36.090Z,19.90
2022-12-01T13:59:47.658Z,19.92
2022-12-01T14:02:29.878Z,19.84
2022-12-01T14:05:33.443Z,20.02
2022-12-01T14:08:32.755Z,20.01
2022-12-01T14:11:29.487Z,19.91
2022-12-01T14:14:26.370Z,19.78
2022-12-01T14:17:10.426Z,19.68
2022-12-01T14:20:00.748Z,19.72
2022-12-01T14:22:47.442Z,19.62
2022-12-01T14:25:31.851Z,19.55
2022-12-01T14:28:30.505Z,19.58
2022-12-01T14:31:13.212Z,19.79
2022-12-01T14:34:28.380Z,19.79
2022-12-01T14:37:20.260Z,19.69
2022-12-01T14:40:18.488Z,19.60
2022-12-01T14:43:20.983Z,19.48
2022-12-01T14:46:19.511Z,19.37
2022-12-01T14:49:04.030Z,19.45
2022-12-01T14:51:56.478Z,19.52
2022-12-01T14:54:54.843Z,19.54
2022-12-01T14:57:45.402Z,19.45
2022-12-01T15:00:34.791Z,19.30
2022-12-01T15:03:21.408Z,19.19
2022-12-01T15:06:16.575Z,19.12
2022-12-01T15:09:35.620Z,19.20
2022-12-01T15:12:41.549Z,18.94
2022-12-01T15:15:33.792Z,18.89
2022-12-01T15:18:35.409Z,18.94
2022-12-01T15:21:32.465Z,19.00
2022-12-01T15:24:38.399Z,18.98
2022-12-01T15:27:39.748Z,19.01
2022-12-01T15:30:23.410Z,19.08
2022-12-01T15:33:13.767Z,18.97
2022-12-01T15:35:57.436Z,19.00
2022-12-01T15:38:50.444Z,18.90
2022-12-01T15:41:39.477Z,18.94
2022-12-01T15:44:30.511Z,18.84
2022-12-01T15:47:48.442Z,18.89
2022-12-01T15:50:48.397Z,19.04
2022-12-01T15:53:47.459Z,19.05
2022-12-01T15:56:39.732Z,19.04
2022-12-01T15:59:21.433Z,19.00
2022-12-01T16:02:31.408Z,18.85
2022-12-01T16:05:48.555Z,18.87
2022-12-01T16:08:30.994Z,18.83
2022-12-01T16:11:31.504Z,18.81
2022-12-01T16:14:34.385Z,18.77
2022-12-01T16:17:24.465Z,18.72
2022-12-01T16:20:32.379Z,18.74
2022-12-01T16:23:30.339Z,18.66
2022-12-01T16:26:12.863Z,18.71
2022-12-01T16:29:02.385Z,18.75
2022-12-01T16:32:19.760Z,18.74
2022-12-01T16:34:54.479Z,18.63
2022-12-01T16:37:43.438Z,18.73
2022-12-01T16:40:26.832Z,18.72
2022-12-01T16:43:24.639Z,18.74
2022-12-01T16:46:09.842Z,18.67
2022-12-01T16:48:58.445Z,18.65
2022-12-01T16:51:55.294Z,18.66
2022-12-01T16:54:45.457Z,18.65
2022-12-01T16:57:27.725Z,18.57
2022-12-01T17:00:17.530Z,18.66
2022-12-01T17:02:59.842Z,18.59
2022-12-01T17:05:48.491Z,18.54
2022-12-01T17:08:31.765Z,18.52
2022-12-01T17:11:20.367Z,18.51
2022-12-01T17:14:09.696Z,18.47
2022-12-01T17:16:52.444Z,18.36
2022-12-01T17:19:34.641Z,18.38
2022-12-01T17:22:23.460Z,18.36
2022-12-01T17:25:12.836Z,18.34
2022-12-01T17:27:55.400Z,18.34
2022-12-01T17:30:45.312Z,18.31
2022-12-01T17:33:28.463Z,18.25
2022-12-01T17:36:20.715Z,18.23
2022-12-01T17:39:03.834Z,18.15
2022-12-01T17:41:51.745Z,18.14
2022-12-01T17:44:33.428Z,17.99
2022-12-01T17:47:23.123Z,17.99
2022-12-01T17:50:05.477Z,18.03
2022-12-01T17:52:54.738Z,17.96
2022-12-01T17:55:37.447Z,17.97
2022-12-01T17:58:25.739Z,18.01
2022-12-01T18:01:07.417Z,17.99
2022-12-01T18:03:57.493Z,17.95
2022-12-01T18:06:39.720Z,17.98
2022-12-01T18:09:28.473Z,17.95
2022-12-01T18:12:17.372Z,17.84
2022-12-01T18:15:12.398Z,17.89
2022-12-01T18:18:01.327Z,17.97
2022-12-01T18:20:58.456Z,17.85
2022-12-01T18:23:47.471Z,17.87
2022-12-01T18:26:30.748Z,17.89
2022-12-01T18:29:33.378Z,17.84
2022-12-01T18:32:22.413Z,17.88
2022-12-01T18:35:11.913Z,17.86
2022-12-01T18:37:54.500Z,17.79
2022-12-01T18:40:46.902Z,17.79
2022-12-01T18:43:28.768Z,17.80
2022-12-01T18:46:11.796Z,17.79
2022-12-01T18:49:10.484Z,17.72
2022-12-01T18:52:01.381Z,17.79
2022-12-01T18:54:45.539Z,17.77
2022-12-01T18:57:27.861Z,17.78
2022-12-01T19:00:17.464Z,17.73
2022-12-01T19:02:59.928Z,17.73
2022-12-01T19:05:53.343Z,17.70
2022-12-01T19:08:42.838Z,17.74
2022-12-01T19:11:26.395Z,17.65
2022-12-01T19:14:24.463Z,17.63
2022-12-01T19:17:06.666Z,17.57
2022-12-01T19:19:55.423Z,17.53
2022-12-01T19:22:37.682Z,17.47
2022-12-01T19:25:27.380Z,17.35
2022-12-01T19:28:17.466Z,17.31
2022-12-01T19:30:59.988Z,17.30
2022-12-01T19:33:49.483Z,17.36
2022-12-01T19:36:34.743Z,17.27
2022-12-01T19:39:23.448Z,17.17
2022-12-01T19:42:06.899Z,17.21
2022-12-01T19:44:55.457Z,17.29
2022-12-01T19:47:41.768Z,17.20
2022-12-01T19:50:30.398Z,17.22
2022-12-01T19:53:12.750Z,17.24
2022-12-01T19:56:01.387Z,17.26
2022-12-01T19:58:43.755Z,17.29
2022-12-01T20:01:33.530Z,17.27
2022-12-01T20:04:16.775Z,17.13
2022-12-01T20:07:05.479Z,17.13
2022-12-01T20:09:50.057Z,17.06
2022-12-01T20:12:39.665Z,17.08
2022-12-01T20:15:22.814Z,17.10
2022-12-01T20:18:11.369Z,17.18
2022-12-01T20:20:53.673Z,17.13
2022-12-01T20:23:43.394Z,17.18
2022-12-01T20:26:34.382Z,17.24
2022-12-01T20:29:29.315Z,17.26
2022-12-01T20:32:23.300Z,17.15
2022-12-01T20:35:12.314Z,17.26
2022-12-01T20:38:01.323Z,17.07
2022-12-01T20:40:50.440Z,17.13
2022-12-01T20:43:39.432Z,17.04
2022-12-01T20:46:21.629Z,17.01
2022-12-01T20:49:10.496Z,17.00
2022-12-01T20:51:58.669Z,16.96
2022-12-01T20:54:41.418Z,16.91
2022-12-01T20:57:30.721Z,16.92
2022-12-01T21:00:16.615Z,16.92
2022-12-01T21:03:05.387Z,16.74
2022-12-01T21:05:51.712Z,16.68
2022-12-01T21:08:40.380Z,16.67
2022-12-01T21:11:56.147Z,16.64
2022-12-01T21:14:47.421Z,16.57
2022-12-01T21:17:49.661Z,16.59
2022-12-01T21:20:47.446Z,16.57
2022-12-01T21:23:29.826Z,16.62
2022-12-01T21:26:26.422Z,16.52
2022-12-01T21:29:26.048Z,16.43
2022-12-01T21:32:25.400Z,16.53
2022-12-01T21:35:32.722Z,16.46
2022-12-01T21:38:22.480Z,16.56
2022-12-01T21:41:04.715Z,16.53
2022-12-01T21:43:53.383Z,16.40
2022-12-01T21:46:36.311Z,16.40
2022-12-01T21:49:29.291Z,16.47
2022-12-01T21:52:19.651Z,16.37
2022-12-01T21:55:31.417Z,16.50
2022-12-01T21:58:50.399Z,16.58
2022-12-01T22:01:34.243Z,16.65
2022-12-01T22:04:45.882Z,16.68
2022-12-01T22:07:35.732Z,16.48
2022-12-01T22:10:56.465Z,16.52
2022-12-01T22:13:58.276Z,16.53
2022-12-01T22:16:52.382Z,16.56
2022-12-01T22:19:44.639Z,16.56
2022-12-01T22:22:40.387Z,16.57
2022-12-01T22:25:36.105Z,16.50
2022-12-01T22:28:34.482Z,16.50
2022-12-01T22:31:27.673Z,16.51
2022-12-01T22:34:22.408Z,16.55
2022-12-01T22:37:13.305Z,16.44
2022-12-01T22:40:04.412Z,16.47
2022-12-01T22:42:53.428Z,16.47
2022-12-01T22:45:35.748Z,16.44
2022-12-01T22:48:36.363Z,16.44
2022-12-01T22:51:30.214Z,16.34
2022-12-01T22:54:25.277Z,16.40
2022-12-01T22:57:25.289Z,16.37
2022-12-01T23:00:19.302Z,16.43
2022-12-01T23:03:10.457Z,16.38
2022-12-01T23:06:03.672Z,16.37
2022-12-01T23:08:46.293Z,16.37
2022-12-01T23:11:28.542Z,16.30
2022-12-01T23:14:17.396Z,16.25
2022-12-01T23:17:15.476Z,16.33
2022-12-01T23:20:00.632Z,16.35
2022-12-01T23:22:49.469Z,16.30
2022-12-01T23:25:40.322Z,16.23
2022-12-01T23:28:30.369Z,16.23
2022-12-01T23:31:19.325Z,16.18
2022-12-01T23:34:08.241Z,16.09
2022-12-01T23:36:58.276Z,16.19
2022-12-01T23:39:47.322Z,16.28
2022-12-01T23:42:29.664Z,16.34
2022-12-01T23:45:33.316Z,16.32
2022-12-01T23:48:31.821Z,16.25
2022-12-01T23:51:43.266Z,16.08
2022-12-01T23:54:39.402Z,16.14
2022-12-01T23:57:31.313Z,16.30
